Terminal Aerodrome Forecast
Issued by NWS Portland, OR

Home | Current Version | Previous Version | Text Only | Print | Product List | Glossary On
Versions: 1 2 3 4 5 6 7 8 9 10 11 12 13 14 15 16 17 18 19 20 21 22 23 24 25 26 27 28 29 30 31 32 33 34 35 36 37 38 39 40
000
FTUS46 KPQR 201729
TAFSLE
TAF
KSLE 201729Z 2018/2118 17021G31KT 6SM -RA BR SCT015 OVC080
     FM202000 18015G25KT 5SM -RA BR SCT008 BKN020 OVC030
     FM202200 18020G28KT 4SM -RA BR SCT008 OVC010
     FM211200 19016G23KT 5SM -RA BR SCT020 OVC050=

USA.gov is the U.S. government's official web portal to all federal, state and local government web resources and services.